sensor_id;sensor_type;location;lat;lon;timestamp;P1;durP1;ratioP1;P2;durP2;ratioP2
68976;SDS011;56029;52.568;13.588;2023-05-14T00:00:19;27.57;;;16.67;;
68976;SDS011;56029;52.568;13.588;2023-05-14T00:03:05;27.50;;;16.85;;
68976;SDS011;56029;52.568;13.588;2023-05-14T00:05:30;29.55;;;18.15;;
68976;SDS011;56029;52.568;13.588;2023-05-14T00:07:56;37.37;;;21.20;;
68976;SDS011;56029;52.568;13.588;2023-05-14T00:10:21;45.13;;;24.00;;
68976;SDS011;56029;52.568;13.588;2023-05-14T00:12:47;45.15;;;23.80;;
68976;SDS011;56029;52.568;13.588;2023-05-14T00:15:13;52.90;;;28.27;;
68976;SDS011;56029;52.568;13.588;2023-05-14T00:17:38;70.10;;;35.93;;
68976;SDS011;56029;52.568;13.588;2023-05-14T00:20:04;87.05;;;41.25;;
68976;SDS011;56029;52.568;13.588;2023-05-14T00:22:31;89.53;;;43.67;;
68976;SDS011;56029;52.568;13.588;2023-05-14T00:24:57;88.13;;;43.13;;
68976;SDS011;56029;52.568;13.588;2023-05-14T00:27:23;90.20;;;43.03;;
68976;SDS011;56029;52.568;13.588;2023-05-14T00:29:48;83.80;;;41.33;;
68976;SDS011;56029;52.568;13.588;2023-05-14T00:32:14;77.22;;;38.42;;
68976;SDS011;56029;52.568;13.588;2023-05-14T00:34:40;63.60;;;32.77;;
68976;SDS011;56029;52.568;13.588;2023-05-14T00:37:05;64.10;;;34.47;;
68976;SDS011;56029;52.568;13.588;2023-05-14T00:39:31;62.70;;;32.25;;
68976;SDS011;56029;52.568;13.588;2023-05-14T00:41:58;59.33;;;31.75;;
68976;SDS011;56029;52.568;13.588;2023-05-14T00:44:24;55.17;;;29.07;;
68976;SDS011;56029;52.568;13.588;2023-05-14T00:46:49;42.47;;;24.20;;
68976;SDS011;56029;52.568;13.588;2023-05-14T00:49:15;39.35;;;21.92;;
68976;SDS011;56029;52.568;13.588;2023-05-14T00:51:41;36.95;;;21.95;;
68976;SDS011;56029;52.568;13.588;2023-05-14T00:54:07;31.73;;;18.80;;
68976;SDS011;56029;52.568;13.588;2023-05-14T00:56:33;29.77;;;17.77;;
68976;SDS011;56029;52.568;13.588;2023-05-14T00:58:59;29.73;;;18.67;;
68976;SDS011;56029;52.568;13.588;2023-05-14T01:01:25;41.15;;;23.67;;
68976;SDS011;56029;52.568;13.588;2023-05-14T01:03:53;44.93;;;25.87;;
68976;SDS011;56029;52.568;13.588;2023-05-14T01:06:26;43.47;;;25.35;;
68976;SDS011;56029;52.568;13.588;2023-05-14T01:09:07;39.53;;;22.80;;
68976;SDS011;56029;52.568;13.588;2023-05-14T01:14:29;28.33;;;17.45;;
68976;SDS011;56029;52.568;13.588;2023-05-14T01:17:15;26.70;;;17.13;;
68976;SDS011;56029;52.568;13.588;2023-05-14T01:19:45;25.90;;;15.40;;
68976;SDS011;56029;52.568;13.588;2023-05-14T01:22:11;24.63;;;15.48;;
68976;SDS011;56029;52.568;13.588;2023-05-14T01:24:38;22.92;;;14.20;;
68976;SDS011;56029;52.568;13.588;2023-05-14T01:29:52;20.98;;;13.40;;
68976;SDS011;56029;52.568;13.588;2023-05-14T01:32:25;19.73;;;12.68;;
68976;SDS011;56029;52.568;13.588;2023-05-14T01:34:54;20.50;;;13.57;;
68976;SDS011;56029;52.568;13.588;2023-05-14T01:37:22;21.30;;;13.47;;
68976;SDS011;56029;52.568;13.588;2023-05-14T01:39:49;17.25;;;11.68;;
68976;SDS011;56029;52.568;13.588;2023-05-14T01:42:16;18.58;;;11.70;;
68976;SDS011;56029;52.568;13.588;2023-05-14T01:44:42;19.23;;;12.48;;
68976;SDS011;56029;52.568;13.588;2023-05-14T01:47:07;20.53;;;12.33;;
68976;SDS011;56029;52.568;13.588;2023-05-14T01:49:33;16.98;;;11.88;;
68976;SDS011;56029;52.568;13.588;2023-05-14T01:51:59;18.63;;;12.17;;
68976;SDS011;56029;52.568;13.588;2023-05-14T01:54:24;17.83;;;12.10;;
68976;SDS011;56029;52.568;13.588;2023-05-14T01:56:50;18.17;;;11.40;;
68976;SDS011;56029;52.568;13.588;2023-05-14T01:59:16;15.80;;;10.83;;
68976;SDS011;56029;52.568;13.588;2023-05-14T02:01:42;17.65;;;11.35;;
68976;SDS011;56029;52.568;13.588;2023-05-14T02:04:08;18.23;;;11.23;;
68976;SDS011;56029;52.568;13.588;2023-05-14T02:06:34;16.90;;;11.33;;
68976;SDS011;56029;52.568;13.588;2023-05-14T02:08:59;18.30;;;11.25;;
68976;SDS011;56029;52.568;13.588;2023-05-14T02:11:25;17.60;;;11.80;;
68976;SDS011;56029;52.568;13.588;2023-05-14T02:13:50;16.67;;;11.20;;
68976;SDS011;56029;52.568;13.588;2023-05-14T02:16:16;17.23;;;11.68;;
68976;SDS011;56029;52.568;13.588;2023-05-14T02:18:42;18.40;;;11.53;;
68976;SDS011;56029;52.568;13.588;2023-05-14T02:21:07;16.80;;;11.00;;
68976;SDS011;56029;52.568;13.588;2023-05-14T02:23:33;17.95;;;11.50;;
68976;SDS011;56029;52.568;13.588;2023-05-14T02:25:58;16.47;;;11.13;;
68976;SDS011;56029;52.568;13.588;2023-05-14T02:28:24;15.57;;;10.47;;
68976;SDS011;56029;52.568;13.588;2023-05-14T02:30:49;15.50;;;10.47;;
68976;SDS011;56029;52.568;13.588;2023-05-14T02:33:15;15.73;;;10.60;;
68976;SDS011;56029;52.568;13.588;2023-05-14T02:35:40;15.20;;;10.40;;
68976;SDS011;56029;52.568;13.588;2023-05-14T02:38:06;16.70;;;10.63;;
68976;SDS011;56029;52.568;13.588;2023-05-14T02:40:31;14.83;;;9.60;;
68976;SDS011;56029;52.568;13.588;2023-05-14T02:42:57;15.17;;;10.53;;
68976;SDS011;56029;52.568;13.588;2023-05-14T02:45:22;14.35;;;9.70;;
68976;SDS011;56029;52.568;13.588;2023-05-14T02:47:48;14.83;;;9.47;;
68976;SDS011;56029;52.568;13.588;2023-05-14T02:50:14;13.97;;;9.60;;
68976;SDS011;56029;52.568;13.588;2023-05-14T02:52:39;13.90;;;9.57;;
68976;SDS011;56029;52.568;13.588;2023-05-14T02:55:05;14.67;;;9.80;;
68976;SDS011;56029;52.568;13.588;2023-05-14T02:57:31;13.38;;;9.38;;
68976;SDS011;56029;52.568;13.588;2023-05-14T02:59:56;14.50;;;9.13;;
68976;SDS011;56029;52.568;13.588;2023-05-14T03:02:22;14.50;;;9.10;;
68976;SDS011;56029;52.568;13.588;2023-05-14T03:04:47;13.03;;;8.50;;
68976;SDS011;56029;52.568;13.588;2023-05-14T03:07:13;15.32;;;9.32;;
68976;SDS011;56029;52.568;13.588;2023-05-14T03:09:38;12.57;;;8.70;;
68976;SDS011;56029;52.568;13.588;2023-05-14T03:12:04;14.50;;;9.20;;
68976;SDS011;56029;52.568;13.588;2023-05-14T03:14:31;13.93;;;8.98;;
68976;SDS011;56029;52.568;13.588;2023-05-14T03:16:56;13.80;;;9.07;;
68976;SDS011;56029;52.568;13.588;2023-05-14T03:19:22;13.20;;;9.02;;
68976;SDS011;56029;52.568;13.588;2023-05-14T03:21:47;15.27;;;9.00;;
68976;SDS011;56029;52.568;13.588;2023-05-14T03:24:14;14.07;;;9.07;;
68976;SDS011;56029;52.568;13.588;2023-05-14T03:26:39;13.00;;;8.70;;
68976;SDS011;56029;52.568;13.588;2023-05-14T03:29:05;13.07;;;8.70;;
68976;SDS011;56029;52.568;13.588;2023-05-14T03:31:31;13.67;;;8.70;;
68976;SDS011;56029;52.568;13.588;2023-05-14T03:33:56;14.27;;;9.15;;
68976;SDS011;56029;52.568;13.588;2023-05-14T03:36:22;13.83;;;8.83;;
68976;SDS011;56029;52.568;13.588;2023-05-14T03:38:47;12.80;;;8.43;;
68976;SDS011;56029;52.568;13.588;2023-05-14T03:41:13;13.88;;;8.77;;
68976;SDS011;56029;52.568;13.588;2023-05-14T03:43:38;12.63;;;8.73;;
68976;SDS011;56029;52.568;13.588;2023-05-14T03:46:04;13.07;;;8.48;;
68976;SDS011;56029;52.568;13.588;2023-05-14T03:48:30;14.77;;;9.57;;
68976;SDS011;56029;52.568;13.588;2023-05-14T03:50:55;14.17;;;9.10;;
68976;SDS011;56029;52.568;13.588;2023-05-14T03:53:21;13.63;;;8.83;;
68976;SDS011;56029;52.568;13.588;2023-05-14T03:55:46;14.37;;;9.60;;
68976;SDS011;56029;52.568;13.588;2023-05-14T03:58:12;12.80;;;9.00;;
68976;SDS011;56029;52.568;13.588;2023-05-14T04:00:39;13.75;;;9.10;;
68976;SDS011;56029;52.568;13.588;2023-05-14T04:03:05;13.60;;;9.00;;
68976;SDS011;56029;52.568;13.588;2023-05-14T04:05:31;12.98;;;8.68;;
68976;SDS011;56029;52.568;13.588;2023-05-14T04:07:57;13.87;;;8.97;;
68976;SDS011;56029;52.568;13.588;2023-05-14T04:10:22;14.97;;;9.00;;
68976;SDS011;56029;52.568;13.588;2023-05-14T04:12:48;14.03;;;9.00;;
68976;SDS011;56029;52.568;13.588;2023-05-14T04:15:14;13.02;;;8.93;;
68976;SDS011;56029;52.568;13.588;2023-05-14T04:17:39;12.50;;;8.57;;
68976;SDS011;56029;52.568;13.588;2023-05-14T04:20:05;12.80;;;8.50;;
68976;SDS011;56029;52.568;13.588;2023-05-14T04:22:31;13.15;;;9.27;;
68976;SDS011;56029;52.568;13.588;2023-05-14T04:24:57;12.80;;;8.77;;
68976;SDS011;56029;52.568;13.588;2023-05-14T04:27:23;12.80;;;8.87;;
68976;SDS011;56029;52.568;13.588;2023-05-14T04:29:49;13.93;;;9.25;;
68976;SDS011;56029;52.568;13.588;2023-05-14T04:32:14;13.53;;;9.17;;
68976;SDS011;56029;52.568;13.588;2023-05-14T04:34:40;12.48;;;8.98;;
68976;SDS011;56029;52.568;13.588;2023-05-14T04:37:06;13.30;;;8.53;;
68976;SDS011;56029;52.568;13.588;2023-05-14T04:39:31;14.83;;;9.43;;
68976;SDS011;56029;52.568;13.588;2023-05-14T04:41:57;12.90;;;8.85;;
68976;SDS011;56029;52.568;13.588;2023-05-14T04:44:22;13.07;;;9.03;;
68976;SDS011;56029;52.568;13.588;2023-05-14T04:46:48;12.00;;;8.80;;
68976;SDS011;56029;52.568;13.588;2023-05-14T04:49:13;11.73;;;8.32;;
68976;SDS011;56029;52.568;13.588;2023-05-14T04:51:39;12.67;;;8.87;;
68976;SDS011;56029;52.568;13.588;2023-05-14T04:54:05;11.52;;;8.85;;
68976;SDS011;56029;52.568;13.588;2023-05-14T04:56:30;14.03;;;8.60;;
68976;SDS011;56029;52.568;13.588;2023-05-14T04:58:56;12.43;;;8.70;;
68976;SDS011;56029;52.568;13.588;2023-05-14T05:01:21;12.67;;;8.70;;
68976;SDS011;56029;52.568;13.588;2023-05-14T05:03:47;12.27;;;8.32;;
68976;SDS011;56029;52.568;13.588;2023-05-14T05:06:13;12.03;;;8.53;;
68976;SDS011;56029;52.568;13.588;2023-05-14T05:08:38;12.40;;;8.25;;
68976;SDS011;56029;52.568;13.588;2023-05-14T05:11:05;12.05;;;8.30;;
68976;SDS011;56029;52.568;13.588;2023-05-14T05:13:30;12.70;;;8.33;;
68976;SDS011;56029;52.568;13.588;2023-05-14T05:15:56;11.27;;;8.57;;
68976;SDS011;56029;52.568;13.588;2023-05-14T05:18:22;12.75;;;8.68;;
68976;SDS011;56029;52.568;13.588;2023-05-14T05:20:47;12.30;;;8.27;;
68976;SDS011;56029;52.568;13.588;2023-05-14T05:23:13;11.40;;;8.27;;
68976;SDS011;56029;52.568;13.588;2023-05-14T05:25:39;13.13;;;8.88;;
68976;SDS011;56029;52.568;13.588;2023-05-14T05:28:04;12.23;;;8.43;;
68976;SDS011;56029;52.568;13.588;2023-05-14T05:30:30;12.47;;;8.40;;
68976;SDS011;56029;52.568;13.588;2023-05-14T05:32:55;13.25;;;8.35;;
68976;SDS011;56029;52.568;13.588;2023-05-14T05:35:21;12.57;;;8.50;;
68976;SDS011;56029;52.568;13.588;2023-05-14T05:37:47;13.27;;;8.65;;
68976;SDS011;56029;52.568;13.588;2023-05-14T05:40:13;12.83;;;8.77;;
68976;SDS011;56029;52.568;13.588;2023-05-14T05:42:39;13.35;;;8.52;;
68976;SDS011;56029;52.568;13.588;2023-05-14T05:45:05;12.32;;;8.60;;
68976;SDS011;56029;52.568;13.588;2023-05-14T05:47:31;13.60;;;8.95;;
68976;SDS011;56029;52.568;13.588;2023-05-14T05:49:56;11.73;;;8.70;;
68976;SDS011;56029;52.568;13.588;2023-05-14T05:52:22;11.63;;;8.43;;
68976;SDS011;56029;52.568;13.588;2023-05-14T05:54:48;12.53;;;8.87;;
68976;SDS011;56029;52.568;13.588;2023-05-14T05:57:13;13.13;;;8.83;;
68976;SDS011;56029;52.568;13.588;2023-05-14T05:59:39;12.80;;;8.20;;
68976;SDS011;56029;52.568;13.588;2023-05-14T06:02:04;12.35;;;8.57;;
68976;SDS011;56029;52.568;13.588;2023-05-14T06:04:31;13.57;;;8.90;;
68976;SDS011;56029;52.568;13.588;2023-05-14T06:06:56;12.88;;;8.35;;
68976;SDS011;56029;52.568;13.588;2023-05-14T06:09:22;13.03;;;8.53;;
68976;SDS011;56029;52.568;13.588;2023-05-14T06:11:47;12.45;;;8.43;;
68976;SDS011;56029;52.568;13.588;2023-05-14T06:14:13;12.60;;;8.40;;
68976;SDS011;56029;52.568;13.588;2023-05-14T06:16:38;13.70;;;8.40;;
68976;SDS011;56029;52.568;13.588;2023-05-14T06:19:04;12.88;;;8.85;;
68976;SDS011;56029;52.568;13.588;2023-05-14T06:21:30;11.48;;;7.95;;
68976;SDS011;56029;52.568;13.588;2023-05-14T06:23:56;13.57;;;8.53;;
68976;SDS011;56029;52.568;13.588;2023-05-14T06:26:21;11.63;;;8.03;;
68976;SDS011;56029;52.568;13.588;2023-05-14T06:28:47;14.75;;;8.38;;
68976;SDS011;56029;52.568;13.588;2023-05-14T06:31:13;11.67;;;8.33;;
68976;SDS011;56029;52.568;13.588;2023-05-14T06:33:38;12.10;;;8.43;;
68976;SDS011;56029;52.568;13.588;2023-05-14T06:36:04;11.18;;;8.38;;
68976;SDS011;56029;52.568;13.588;2023-05-14T06:38:30;13.70;;;8.50;;
68976;SDS011;56029;52.568;13.588;2023-05-14T06:40:56;10.82;;;7.93;;
68976;SDS011;56029;52.568;13.588;2023-05-14T06:43:22;10.97;;;8.10;;
68976;SDS011;56029;52.568;13.588;2023-05-14T06:45:48;13.30;;;7.80;;
68976;SDS011;56029;52.568;13.588;2023-05-14T06:48:14;12.82;;;8.05;;
68976;SDS011;56029;52.568;13.588;2023-05-14T06:50:39;11.57;;;7.97;;
68976;SDS011;56029;52.568;13.588;2023-05-14T06:53:05;12.97;;;7.73;;
68976;SDS011;56029;52.568;13.588;2023-05-14T06:55:30;11.00;;;7.87;;
68976;SDS011;56029;52.568;13.588;2023-05-14T06:57:56;11.82;;;8.20;;
68976;SDS011;56029;52.568;13.588;2023-05-14T07:00:21;10.73;;;8.00;;
68976;SDS011;56029;52.568;13.588;2023-05-14T07:02:47;11.83;;;8.70;;
68976;SDS011;56029;52.568;13.588;2023-05-14T07:05:13;12.40;;;7.85;;
68976;SDS011;56029;52.568;13.588;2023-05-14T07:07:38;15.03;;;7.80;;
68976;SDS011;56029;52.568;13.588;2023-05-14T07:10:04;10.77;;;7.57;;
68976;SDS011;56029;52.568;13.588;2023-05-14T07:12:30;10.90;;;7.67;;
68976;SDS011;56029;52.568;13.588;2023-05-14T07:14:56;11.70;;;7.30;;
68976;SDS011;56029;52.568;13.588;2023-05-14T07:17:21;10.37;;;7.30;;
68976;SDS011;56029;52.568;13.588;2023-05-14T07:19:47;11.23;;;7.40;;
68976;SDS011;56029;52.568;13.588;2023-05-14T07:22:12;11.50;;;7.20;;
68976;SDS011;56029;52.568;13.588;2023-05-14T07:24:38;10.38;;;7.22;;
68976;SDS011;56029;52.568;13.588;2023-05-14T07:27:04;9.80;;;7.10;;
68976;SDS011;56029;52.568;13.588;2023-05-14T07:29:29;11.43;;;7.87;;
68976;SDS011;56029;52.568;13.588;2023-05-14T07:31:55;10.00;;;7.45;;
68976;SDS011;56029;52.568;13.588;2023-05-14T07:34:20;11.23;;;7.40;;
68976;SDS011;56029;52.568;13.588;2023-05-14T07:36:46;11.27;;;7.00;;
68976;SDS011;56029;52.568;13.588;2023-05-14T07:39:11;11.70;;;7.30;;
68976;SDS011;56029;52.568;13.588;2023-05-14T07:41:37;11.63;;;7.30;;
68976;SDS011;56029;52.568;13.588;2023-05-14T07:44:03;12.07;;;7.10;;
68976;SDS011;56029;52.568;13.588;2023-05-14T07:46:29;9.73;;;7.33;;
68976;SDS011;56029;52.568;13.588;2023-05-14T07:48:54;10.35;;;7.22;;
68976;SDS011;56029;52.568;13.588;2023-05-14T07:51:20;9.90;;;7.20;;
68976;SDS011;56029;52.568;13.588;2023-05-14T07:53:45;10.55;;;7.13;;
68976;SDS011;56029;52.568;13.588;2023-05-14T07:56:11;9.87;;;6.97;;
68976;SDS011;56029;52.568;13.588;2023-05-14T07:58:36;10.23;;;6.63;;
68976;SDS011;56029;52.568;13.588;2023-05-14T08:01:02;10.57;;;6.72;;
68976;SDS011;56029;52.568;13.588;2023-05-14T08:03:31;11.13;;;6.57;;
68976;SDS011;56029;52.568;13.588;2023-05-14T08:05:58;10.98;;;6.75;;
68976;SDS011;56029;52.568;13.588;2023-05-14T08:08:23;9.18;;;6.65;;
68976;SDS011;56029;52.568;13.588;2023-05-14T08:10:49;9.03;;;6.57;;
68976;SDS011;56029;52.568;13.588;2023-05-14T08:13:15;9.98;;;6.57;;
68976;SDS011;56029;52.568;13.588;2023-05-14T08:15:40;9.90;;;6.40;;
68976;SDS011;56029;52.568;13.588;2023-05-14T08:18:06;9.65;;;6.80;;
68976;SDS011;56029;52.568;13.588;2023-05-14T08:20:32;11.43;;;6.53;;
68976;SDS011;56029;52.568;13.588;2023-05-14T08:22:57;9.47;;;6.47;;
68976;SDS011;56029;52.568;13.588;2023-05-14T08:25:23;10.37;;;6.57;;
68976;SDS011;56029;52.568;13.588;2023-05-14T08:27:49;9.68;;;6.10;;
68976;SDS011;56029;52.568;13.588;2023-05-14T08:30:14;10.90;;;6.30;;
68976;SDS011;56029;52.568;13.588;2023-05-14T08:32:40;9.83;;;6.60;;
68976;SDS011;56029;52.568;13.588;2023-05-14T08:35:06;8.52;;;6.18;;
68976;SDS011;56029;52.568;13.588;2023-05-14T08:37:32;8.68;;;5.80;;
68976;SDS011;56029;52.568;13.588;2023-05-14T08:39:58;9.80;;;6.33;;
68976;SDS011;56029;52.568;13.588;2023-05-14T08:42:23;9.80;;;5.90;;
68976;SDS011;56029;52.568;13.588;2023-05-14T08:45:00;8.30;;;5.93;;
68976;SDS011;56029;52.568;13.588;2023-05-14T08:47:28;7.43;;;5.40;;
68976;SDS011;56029;52.568;13.588;2023-05-14T08:50:01;10.48;;;5.50;;
68976;SDS011;56029;52.568;13.588;2023-05-14T08:52:28;7.95;;;5.50;;
68976;SDS011;56029;52.568;13.588;2023-05-14T08:54:55;9.10;;;5.80;;
68976;SDS011;56029;52.568;13.588;2023-05-14T08:57:23;8.50;;;5.55;;
68976;SDS011;56029;52.568;13.588;2023-05-14T08:59:51;10.60;;;5.80;;
68976;SDS011;56029;52.568;13.588;2023-05-14T09:02:17;8.52;;;5.60;;
68976;SDS011;56029;52.568;13.588;2023-05-14T09:04:46;9.45;;;5.60;;
68976;SDS011;56029;52.568;13.588;2023-05-14T09:07:12;8.83;;;5.43;;
68976;SDS011;56029;52.568;13.588;2023-05-14T09:09:37;9.10;;;5.40;;
68976;SDS011;56029;52.568;13.588;2023-05-14T09:12:03;8.50;;;4.70;;
68976;SDS011;56029;52.568;13.588;2023-05-14T09:14:31;7.53;;;5.00;;
68976;SDS011;56029;52.568;13.588;2023-05-14T09:16:57;8.38;;;5.10;;
68976;SDS011;56029;52.568;13.588;2023-05-14T09:19:23;7.23;;;4.83;;
68976;SDS011;56029;52.568;13.588;2023-05-14T09:21:49;7.95;;;5.15;;
68976;SDS011;56029;52.568;13.588;2023-05-14T09:24:21;7.47;;;5.50;;
68976;SDS011;56029;52.568;13.588;2023-05-14T09:26:49;8.38;;;5.10;;
68976;SDS011;56029;52.568;13.588;2023-05-14T09:29:16;7.65;;;5.05;;
68976;SDS011;56029;52.568;13.588;2023-05-14T09:31:42;7.55;;;4.78;;
68976;SDS011;56029;52.568;13.588;2023-05-14T09:34:07;7.27;;;4.73;;
68976;SDS011;56029;52.568;13.588;2023-05-14T09:36:33;8.57;;;4.67;;
68976;SDS011;56029;52.568;13.588;2023-05-14T09:38:59;7.80;;;4.80;;
68976;SDS011;56029;52.568;13.588;2023-05-14T09:41:28;7.97;;;5.00;;
68976;SDS011;56029;52.568;13.588;2023-05-14T09:43:53;8.10;;;5.07;;
68976;SDS011;56029;52.568;13.588;2023-05-14T09:46:21;6.97;;;4.90;;
68976;SDS011;56029;52.568;13.588;2023-05-14T09:48:47;7.72;;;5.10;;
68976;SDS011;56029;52.568;13.588;2023-05-14T09:51:13;8.30;;;4.90;;
68976;SDS011;56029;52.568;13.588;2023-05-14T09:53:41;7.70;;;4.47;;
68976;SDS011;56029;52.568;13.588;2023-05-14T09:56:08;7.57;;;5.30;;
68976;SDS011;56029;52.568;13.588;2023-05-14T09:58:33;7.40;;;4.85;;
68976;SDS011;56029;52.568;13.588;2023-05-14T10:00:59;7.53;;;4.77;;
68976;SDS011;56029;52.568;13.588;2023-05-14T10:03:25;7.30;;;4.70;;
68976;SDS011;56029;52.568;13.588;2023-05-14T10:05:54;8.38;;;5.03;;
68976;SDS011;56029;52.568;13.588;2023-05-14T10:08:43;7.57;;;4.60;;
68976;SDS011;56029;52.568;13.588;2023-05-14T10:11:12;8.65;;;5.03;;
68976;SDS011;56029;52.568;13.588;2023-05-14T10:13:40;7.95;;;5.10;;
68976;SDS011;56029;52.568;13.588;2023-05-14T10:16:12;6.97;;;4.97;;
68976;SDS011;56029;52.568;13.588;2023-05-14T10:18:45;7.20;;;4.70;;
68976;SDS011;56029;52.568;13.588;2023-05-14T10:21:16;7.07;;;5.00;;
68976;SDS011;56029;52.568;13.588;2023-05-14T10:23:44;9.18;;;5.15;;
68976;SDS011;56029;52.568;13.588;2023-05-14T10:26:11;9.00;;;5.50;;
68976;SDS011;56029;52.568;13.588;2023-05-14T10:28:37;7.40;;;5.03;;
68976;SDS011;56029;52.568;13.588;2023-05-14T10:31:02;9.00;;;5.33;;
68976;SDS011;56029;52.568;13.588;2023-05-14T10:33:28;8.33;;;5.23;;
68976;SDS011;56029;52.568;13.588;2023-05-14T10:38:27;7.68;;;5.07;;
68976;SDS011;56029;52.568;13.588;2023-05-14T10:40:55;8.10;;;5.20;;
68976;SDS011;56029;52.568;13.588;2023-05-14T10:43:23;10.43;;;5.40;;
68976;SDS011;56029;52.568;13.588;2023-05-14T10:45:50;8.85;;;5.40;;
68976;SDS011;56029;52.568;13.588;2023-05-14T10:48:16;7.88;;;5.35;;
68976;SDS011;56029;52.568;13.588;2023-05-14T10:50:43;8.03;;;5.10;;
68976;SDS011;56029;52.568;13.588;2023-05-14T10:53:12;8.77;;;5.43;;
68976;SDS011;56029;52.568;13.588;2023-05-14T10:55:38;8.35;;;5.05;;
68976;SDS011;56029;52.568;13.588;2023-05-14T10:58:03;8.50;;;5.40;;
68976;SDS011;56029;52.568;13.588;2023-05-14T11:00:32;9.40;;;5.10;;
68976;SDS011;56029;52.568;13.588;2023-05-14T11:02:59;8.20;;;4.90;;
68976;SDS011;56029;52.568;13.588;2023-05-14T11:05:31;11.27;;;5.47;;
68976;SDS011;56029;52.568;13.588;2023-05-14T11:08:00;9.50;;;5.50;;
68976;SDS011;56029;52.568;13.588;2023-05-14T11:10:30;7.22;;;5.10;;
68976;SDS011;56029;52.568;13.588;2023-05-14T11:12:56;8.30;;;5.32;;
68976;SDS011;56029;52.568;13.588;2023-05-14T11:15:23;7.20;;;4.75;;
68976;SDS011;56029;52.568;13.588;2023-05-14T11:17:50;7.35;;;4.93;;
68976;SDS011;56029;52.568;13.588;2023-05-14T11:20:17;10.57;;;5.47;;
68976;SDS011;56029;52.568;13.588;2023-05-14T11:22:44;7.55;;;5.13;;
68976;SDS011;56029;52.568;13.588;2023-05-14T11:25:11;11.85;;;6.90;;
68976;SDS011;56029;52.568;13.588;2023-05-14T11:27:39;9.63;;;5.78;;
68976;SDS011;56029;52.568;13.588;2023-05-14T11:30:15;8.02;;;5.60;;
68976;SDS011;56029;52.568;13.588;2023-05-14T11:32:44;8.83;;;5.67;;
68976;SDS011;56029;52.568;13.588;2023-05-14T11:35:11;8.32;;;5.22;;
68976;SDS011;56029;52.568;13.588;2023-05-14T11:37:37;7.97;;;5.60;;
68976;SDS011;56029;52.568;13.588;2023-05-14T11:40:05;9.02;;;5.60;;
68976;SDS011;56029;52.568;13.588;2023-05-14T11:42:33;9.13;;;5.30;;
68976;SDS011;56029;52.568;13.588;2023-05-14T11:45:01;8.57;;;5.50;;
68976;SDS011;56029;52.568;13.588;2023-05-14T11:47:27;9.65;;;5.45;;
68976;SDS011;56029;52.568;13.588;2023-05-14T11:49:54;8.53;;;5.17;;
68976;SDS011;56029;52.568;13.588;2023-05-14T11:52:19;12.05;;;5.53;;
68976;SDS011;56029;52.568;13.588;2023-05-14T11:54:46;8.73;;;5.43;;
68976;SDS011;56029;52.568;13.588;2023-05-14T11:57:17;8.13;;;5.40;;
68976;SDS011;56029;52.568;13.588;2023-05-14T11:59:44;10.00;;;6.00;;
68976;SDS011;56029;52.568;13.588;2023-05-14T12:02:10;10.10;;;6.50;;
68976;SDS011;56029;52.568;13.588;2023-05-14T12:04:37;7.73;;;5.47;;
68976;SDS011;56029;52.568;13.588;2023-05-14T12:07:13;8.20;;;5.80;;
68976;SDS011;56029;52.568;13.588;2023-05-14T12:09:41;8.48;;;5.60;;
68976;SDS011;56029;52.568;13.588;2023-05-14T12:12:08;7.97;;;5.30;;
68976;SDS011;56029;52.568;13.588;2023-05-14T12:14:36;8.70;;;5.15;;
68976;SDS011;56029;52.568;13.588;2023-05-14T12:17:02;7.28;;;5.53;;
68976;SDS011;56029;52.568;13.588;2023-05-14T12:19:34;9.00;;;5.20;;
68976;SDS011;56029;52.568;13.588;2023-05-14T12:22:04;8.52;;;5.40;;
68976;SDS011;56029;52.568;13.588;2023-05-14T12:24:30;8.87;;;5.47;;
68976;SDS011;56029;52.568;13.588;2023-05-14T12:26:55;8.23;;;5.43;;
68976;SDS011;56029;52.568;13.588;2023-05-14T12:29:21;9.20;;;5.10;;
68976;SDS011;56029;52.568;13.588;2023-05-14T12:31:48;8.20;;;5.10;;
68976;SDS011;56029;52.568;13.588;2023-05-14T12:34:15;7.82;;;5.20;;
68976;SDS011;56029;52.568;13.588;2023-05-14T12:36:41;7.70;;;5.50;;
68976;SDS011;56029;52.568;13.588;2023-05-14T12:39:08;7.57;;;5.00;;
68976;SDS011;56029;52.568;13.588;2023-05-14T12:41:34;8.52;;;5.13;;
68976;SDS011;56029;52.568;13.588;2023-05-14T12:44:01;7.57;;;5.23;;
68976;SDS011;56029;52.568;13.588;2023-05-14T12:46:27;8.38;;;4.97;;
68976;SDS011;56029;52.568;13.588;2023-05-14T12:48:54;7.13;;;5.00;;
68976;SDS011;56029;52.568;13.588;2023-05-14T12:51:19;7.80;;;5.00;;
68976;SDS011;56029;52.568;13.588;2023-05-14T12:53:45;6.72;;;4.82;;
68976;SDS011;56029;52.568;13.588;2023-05-14T12:56:11;6.77;;;5.23;;
68976;SDS011;56029;52.568;13.588;2023-05-14T12:58:37;7.50;;;4.80;;
68976;SDS011;56029;52.568;13.588;2023-05-14T13:01:03;7.53;;;5.00;;
68976;SDS011;56029;52.568;13.588;2023-05-14T13:03:29;8.40;;;5.20;;
68976;SDS011;56029;52.568;13.588;2023-05-14T13:05:54;7.50;;;5.20;;
68976;SDS011;56029;52.568;13.588;2023-05-14T13:08:21;9.00;;;5.18;;
68976;SDS011;56029;52.568;13.588;2023-05-14T13:10:50;8.93;;;5.10;;
68976;SDS011;56029;52.568;13.588;2023-05-14T13:13:16;8.00;;;5.60;;
68976;SDS011;56029;52.568;13.588;2023-05-14T13:15:42;8.80;;;5.40;;
68976;SDS011;56029;52.568;13.588;2023-05-14T13:18:08;8.85;;;5.13;;
68976;SDS011;56029;52.568;13.588;2023-05-14T13:20:33;8.03;;;4.90;;
68976;SDS011;56029;52.568;13.588;2023-05-14T13:22:59;8.88;;;4.93;;
68976;SDS011;56029;52.568;13.588;2023-05-14T13:25:25;7.97;;;5.03;;
68976;SDS011;56029;52.568;13.588;2023-05-14T13:27:51;8.88;;;5.97;;
68976;SDS011;56029;52.568;13.588;2023-05-14T13:30:17;8.20;;;4.90;;
68976;SDS011;56029;52.568;13.588;2023-05-14T13:32:43;8.20;;;5.13;;
68976;SDS011;56029;52.568;13.588;2023-05-14T13:35:09;7.90;;;4.97;;
68976;SDS011;56029;52.568;13.588;2023-05-14T13:37:35;7.88;;;4.82;;
68976;SDS011;56029;52.568;13.588;2023-05-14T13:40:01;7.93;;;5.30;;
68976;SDS011;56029;52.568;13.588;2023-05-14T13:42:29;7.55;;;4.95;;
68976;SDS011;56029;52.568;13.588;2023-05-14T13:44:56;7.57;;;4.97;;
68976;SDS011;56029;52.568;13.588;2023-05-14T13:47:23;6.85;;;4.60;;
68976;SDS011;56029;52.568;13.588;2023-05-14T13:49:50;7.95;;;4.93;;
68976;SDS011;56029;52.568;13.588;2023-05-14T13:52:16;8.05;;;4.95;;
68976;SDS011;56029;52.568;13.588;2023-05-14T13:54:42;6.73;;;4.67;;
68976;SDS011;56029;52.568;13.588;2023-05-14T13:57:07;7.40;;;5.10;;
68976;SDS011;56029;52.568;13.588;2023-05-14T13:59:33;8.02;;;5.20;;
68976;SDS011;56029;52.568;13.588;2023-05-14T14:01:58;8.30;;;4.93;;
68976;SDS011;56029;52.568;13.588;2023-05-14T14:04:24;7.38;;;4.75;;
68976;SDS011;56029;52.568;13.588;2023-05-14T14:06:53;7.00;;;4.90;;
68976;SDS011;56029;52.568;13.588;2023-05-14T14:09:19;8.32;;;4.80;;
68976;SDS011;56029;52.568;13.588;2023-05-14T14:11:46;8.45;;;5.00;;
68976;SDS011;56029;52.568;13.588;2023-05-14T14:14:11;7.27;;;4.93;;
68976;SDS011;56029;52.568;13.588;2023-05-14T14:16:37;7.80;;;4.80;;
68976;SDS011;56029;52.568;13.588;2023-05-14T14:19:02;7.25;;;4.93;;
68976;SDS011;56029;52.568;13.588;2023-05-14T14:21:28;7.20;;;4.60;;
68976;SDS011;56029;52.568;13.588;2023-05-14T14:23:55;7.20;;;4.90;;
68976;SDS011;56029;52.568;13.588;2023-05-14T14:26:20;7.85;;;5.03;;